Time;durP1;ratioP1;P1;durP2;ratioP2;P2;SDS_P1;SDS_P2;PMS_P1;PMS_P2;Temp;Humidity;BMP_temperature;BMP_pressure;BME280_temperature;BME280_humidity;BME280_pressure;Samples;Min_cycle;Max_cycle;Signal;HPM_P1;HPM_P2
2021/06/04 04:16:12;;;;;;;32.95;29.45;;;;;;;;;;2037872;29;20191;-52
2021/06/04 04:17:12;;;;;;;33.17;29.35;;;;;;;;;;2042281;29;20199;-52
2021/06/04 04:18:13;;;;;;;35.40;31.60;;;;;;;;;;2042326;29;20655;-51
2021/06/04 04:19:14;;;;;;;36.22;32.28;;;;;;;;;;2032880;29;20188;-51
2021/06/04 04:20:16;;;;;;;31.55;28.25;;;;;;;;;;2032881;29;20211;-55
2021/06/04 04:21:16;;;;;;;33.05;28.83;;;;;;;;;;2042809;29;20187;-52
2021/06/04 04:22:17;;;;;;;30.38;27.15;;;;;;;;;;2041735;29;20204;-51
2021/06/04 04:23:23;;;;;;;30.33;27.08;;;;;;;;;;2041173;29;20190;-51
2021/06/04 04:24:26;;;;;;;31.23;28.02;;;;;;;;;;2047611;28;20222;-51
2021/06/04 04:25:31;;;;;;;31.77;28.52;;;;;;;;;;2047938;28;20218;-52
2021/06/04 04:26:33;;;;;;;32.58;29.08;;;;;;;;;;2049031;29;20979;-51
2021/06/04 04:28:40;;;;;;;30.52;27.35;;;;;;;;;;2025021;29;20219;-54
2021/06/04 04:29:40;;;;;;;30.92;27.73;;;;;;;;;;2030429;29;20633;-54
2021/06/04 04:30:40;;;;;;;30.10;26.55;;;;;;;;;;2032348;29;20255;-55
2021/06/04 04:31:43;;;;;;;29.67;26.73;;;;;;;;;;2033458;29;20188;-52
2021/06/04 04:32:44;;;;;;;29.27;26.38;;;;;;;;;;2032316;29;20188;-56
2021/06/04 04:33:44;;;;;;;26.98;24.30;;;;;;;;;;2034174;29;20616;-57
2021/06/04 04:34:47;;;;;;;29.42;26.25;;;;;;;;;;2034155;29;20614;-57
2021/06/04 04:35:48;;;;;;;28.67;25.55;;;;;;;;;;2032633;29;20260;-57
2021/06/04 04:36:50;;;;;;;29.23;26.38;;;;;;;;;;2030422;29;20247;-55
2021/06/04 04:37:50;;;;;;;28.55;25.75;;;;;;;;;;2034821;29;20596;-58
2021/06/04 04:38:50;;;;;;;28.15;25.30;;;;;;;;;;2039031;29;20239;-55
2021/06/04 04:39:51;;;;;;;29.60;26.70;;;;;;;;;;2045954;28;20251;-53
2021/06/04 04:41:01;;;;;;;29.30;26.35;;;;;;;;;;2046769;29;20163;-57
2021/06/04 04:42:03;;;;;;;30.38;27.15;;;;;;;;;;2037936;29;20625;-53
2021/06/04 04:43:04;;;;;;;32.72;29.48;;;;;;;;;;2039425;29;20167;-54
2021/06/04 04:44:05;;;;;;;30.42;27.40;;;;;;;;;;2038885;29;20214;-53
2021/06/04 04:45:08;;;;;;;29.73;26.70;;;;;;;;;;2039824;29;20262;-58
2021/06/04 04:46:09;;;;;;;29.42;26.23;;;;;;;;;;2036891;29;20647;-55
2021/06/04 04:47:11;;;;;;;29.38;26.40;;;;;;;;;;2040640;29;20203;-54
2021/06/04 04:48:11;;;;;;;29.88;26.92;;;;;;;;;;2039991;29;20195;-59
2021/06/04 04:49:12;;;;;;;28.95;26.05;;;;;;;;;;2038142;29;20662;-58
2021/06/04 04:50:12;;;;;;;30.00;25.10;;;;;;;;;;2040495;29;20758;-56
2021/06/04 04:51:14;;;;;;;28.65;25.80;;;;;;;;;;2040842;29;20164;-53
2021/06/04 04:52:15;;;;;;;29.83;26.67;;;;;;;;;;2040230;29;20263;-56
2021/06/04 04:53:16;;;;;;;27.42;24.63;;;;;;;;;;2040563;29;20837;-55
2021/06/04 04:54:17;;;;;;;27.02;24.40;;;;;;;;;;2040321;29;20180;-57
2021/06/04 04:55:17;;;;;;;28.63;25.83;;;;;;;;;;2039021;29;20278;-53
2021/06/04 04:56:18;;;;;;;27.90;25.20;;;;;;;;;;2035371;29;20172;-57
2021/06/04 04:57:20;;;;;;;28.02;25.17;;;;;;;;;;2040358;29;20172;-57
2021/06/04 04:58:21;;;;;;;30.02;26.83;;;;;;;;;;2040133;29;20699;-53
2021/06/04 04:59:21;;;;;;;32.45;28.95;;;;;;;;;;2039894;29;20211;-47
2021/06/04 05:00:23;;;;;;;31.42;27.98;;;;;;;;;;2040069;29;20203;-52
2021/06/04 05:01:23;;;;;;;30.02;26.83;;;;;;;;;;2041291;29;20175;-52
2021/06/04 05:02:24;;;;;;;31.60;28.40;;;;;;;;;;2040718;29;20203;-51
2021/06/04 05:03:26;;;;;;;31.58;28.25;;;;;;;;;;2040656;29;20279;-50
2021/06/04 05:04:26;;;;;;;32.83;29.40;;;;;;;;;;2040929;29;20270;-55
2021/06/04 05:05:28;;;;;;;30.58;27.48;;;;;;;;;;2041370;29;20183;-51
2021/06/04 05:06:28;;;;;;;31.35;27.75;;;;;;;;;;2041302;29;20195;-59
2021/06/04 05:07:28;;;;;;;29.75;26.63;;;;;;;;;;2048797;29;20655;-57
2021/06/04 05:08:28;;;;;;;28.17;25.27;;;;;;;;;;2048878;28;20203;-56
2021/06/04 05:09:29;;;;;;;28.17;25.48;;;;;;;;;;2040765;29;20218;-60
2021/06/04 05:10:30;;;;;;;25.20;22.80;;;;;;;;;;2042434;29;20171;-58
2021/06/04 05:11:30;;;;;;;26.13;23.63;;;;;;;;;;2041487;29;20218;-62
2021/06/04 05:12:31;;;;;;;25.58;22.88;;;;;;;;;;2041038;29;20562;-61
2021/06/04 05:13:32;;;;;;;25.88;23.48;;;;;;;;;;2049330;28;20225;-61
2021/06/04 05:14:32;;;;;;;27.23;24.60;;;;;;;;;;2047649;28;20566;-57
2021/06/04 05:15:34;;;;;;;26.27;23.85;;;;;;;;;;2041040;29;20263;-60
2021/06/04 05:16:34;;;;;;;27.23;24.58;;;;;;;;;;2041149;29;20717;-58
2021/06/04 05:17:34;;;;;;;26.63;24.08;;;;;;;;;;2041539;29;20168;-58
2021/06/04 05:18:36;;;;;;;27.33;24.63;;;;;;;;;;2041064;29;20239;-59
2021/06/04 05:19:38;;;;;;;28.98;26.13;;;;;;;;;;2041584;29;20199;-58
2021/06/04 05:20:38;;;;;;;26.02;23.45;;;;;;;;;;2041487;29;20168;-53
2021/06/04 05:21:38;;;;;;;25.52;23.02;;;;;;;;;;2040907;29;20176;-53
2021/06/04 05:22:40;;;;;;;25.67;23.17;;;;;;;;;;2041441;29;20172;-54
2021/06/04 05:23:40;;;;;;;26.30;23.55;;;;;;;;;;2041123;29;20172;-51
2021/06/04 05:24:40;;;;;;;26.70;24.15;;;;;;;;;;2044406;29;20291;-52
2021/06/04 05:25:42;;;;;;;26.17;23.67;;;;;;;;;;2045368;29;20606;-55
2021/06/04 05:26:43;;;;;;;23.85;21.55;;;;;;;;;;2041042;29;20562;-56
2021/06/04 05:27:45;;;;;;;24.38;22.08;;;;;;;;;;2040744;29;20214;-55
2021/06/04 05:28:45;;;;;;;25.83;23.23;;;;;;;;;;2041466;29;20179;-56
2021/06/04 05:29:45;;;;;;;25.95;23.35;;;;;;;;;;2041815;29;20695;-53
2021/06/04 05:30:47;;;;;;;25.70;23.13;;;;;;;;;;2040976;29;20176;-54
2021/06/04 05:31:47;;;;;;;26.85;24.25;;;;;;;;;;2040619;29;20198;-55
2021/06/04 05:32:48;;;;;;;25.30;22.98;;;;;;;;;;2042255;29;20226;-54
2021/06/04 05:33:50;;;;;;;25.98;23.48;;;;;;;;;;2041127;29;20187;-55
2021/06/04 05:34:51;;;;;;;25.40;22.90;;;;;;;;;;2041604;29;20188;-58
2021/06/04 05:35:52;;;;;;;25.27;22.85;;;;;;;;;;2040148;29;20185;-56
2021/06/04 05:36:52;;;;;;;24.05;21.67;;;;;;;;;;2039473;29;20666;-58
2021/06/04 05:37:52;;;;;;;24.35;22.10;;;;;;;;;;2041037;29;20187;-54
2021/06/04 05:38:53;;;;;;;23.45;21.10;;;;;;;;;;2041740;29;20176;-56
2021/06/04 05:39:53;;;;;;;25.58;22.92;;;;;;;;;;2041732;29;20294;-53
2021/06/04 05:40:55;;;;;;;23.48;21.25;;;;;;;;;;2041627;29;20647;-55
2021/06/04 05:41:59;;;;;;;21.73;19.75;;;;;;;;;;2040416;29;20190;-57
2021/06/04 05:43:00;;;;;;;23.83;21.63;;;;;;;;;;2040001;29;20171;-55
2021/06/04 05:44:00;;;;;;;23.65;21.35;;;;;;;;;;2040748;29;20267;-56
2021/06/04 05:45:01;;;;;;;24.48;21.75;;;;;;;;;;2041301;29;20175;-54
2021/06/04 05:46:02;;;;;;;24.00;21.70;;;;;;;;;;2041531;29;20184;-57
2021/06/04 05:47:05;;;;;;;23.02;20.70;;;;;;;;;;2039984;29;20672;-54
2021/06/04 05:48:05;;;;;;;24.55;22.20;;;;;;;;;;2048938;29;20197;-58
2021/06/04 05:49:06;;;;;;;24.80;22.35;;;;;;;;;;2049430;29;20197;-57
2021/06/04 05:50:07;;;;;;;25.88;22.90;;;;;;;;;;2041627;29;20179;-54
2021/06/04 05:51:10;;;;;;;25.10;22.60;;;;;;;;;;2041133;29;20660;-55
2021/06/04 05:52:11;;;;;;;26.15;23.48;;;;;;;;;;2039387;29;20167;-49
2021/06/04 05:53:13;;;;;;;24.85;22.27;;;;;;;;;;2039959;29;20597;-55
2021/06/04 05:54:14;;;;;;;25.48;22.73;;;;;;;;;;2041275;29;20195;-57
2021/06/04 05:55:17;;;;;;;26.73;24.02;;;;;;;;;;2041100;29;20176;-57
2021/06/04 05:56:18;;;;;;;27.80;24.90;;;;;;;;;;2044503;29;20180;-56
2021/06/04 05:57:19;;;;;;;26.15;23.33;;;;;;;;;;2041435;29;20218;-54
2021/06/04 05:58:20;;;;;;;28.45;25.52;;;;;;;;;;2041558;29;20683;-53
2021/06/04 05:59:20;;;;;;;26.42;23.60;;;;;;;;;;2041297;29;20194;-55
2021/06/04 06:00:23;;;;;;;28.30;25.13;;;;;;;;;;2042825;29;20172;-55
2021/06/04 06:01:26;;;;;;;28.50;25.30;;;;;;;;;;2041930;29;20267;-55
2021/06/04 06:02:26;;;;;;;30.60;27.33;;;;;;;;;;2042162;29;20199;-60
2021/06/04 06:03:31;;;;;;;29.13;26.05;;;;;;;;;;2042089;29;20175;-57
2021/06/04 06:04:31;;;;;;;27.73;24.75;;;;;;;;;;2039153;29;20218;-55
2021/06/04 06:05:32;;;;;;;28.63;25.77;;;;;;;;;;2042298;29;20199;-55
2021/06/04 06:06:32;;;;;;;29.35;26.23;;;;;;;;;;2041086;29;20580;-54
2021/06/04 06:07:33;;;;;;;28.65;25.52;;;;;;;;;;2042499;29;20195;-56
2021/06/04 06:08:33;;;;;;;28.40;25.40;;;;;;;;;;2040805;29;20278;-53
2021/06/04 06:09:34;;;;;;;27.95;25.05;;;;;;;;;;2046664;29;20198;-54
2021/06/04 06:10:34;;;;;;;30.05;26.85;;;;;;;;;;2047540;29;20183;-55
2021/06/04 06:11:34;;;;;;;29.75;26.65;;;;;;;;;;2040992;29;20172;-54
2021/06/04 06:12:35;;;;;;;28.80;25.85;;;;;;;;;;2039812;29;20535;-59
2021/06/04 06:13:36;;;;;;;28.15;25.25;;;;;;;;;;2041577;29;20251;-54
2021/06/04 06:14:36;;;;;;;29.77;26.45;;;;;;;;;;2040844;29;20273;-53
2021/06/04 06:15:37;;;;;;;32.22;27.98;;;;;;;;;;2037720;29;20184;-55
2021/06/04 06:16:38;;;;;;;30.55;26.90;;;;;;;;;;2040585;29;20226;-54
2021/06/04 06:17:38;;;;;;;32.95;29.48;;;;;;;;;;2041642;29;20187;-52
2021/06/04 06:18:38;;;;;;;25.23;22.60;;;;;;;;;;2039728;29;20175;-57
2021/06/04 06:19:38;;;;;;;32.00;28.70;;;;;;;;;;2041159;29;20214;-52
2021/06/04 06:20:40;;;;;;;31.63;28.27;;;;;;;;;;2041196;29;20171;-55
2021/06/04 06:21:42;;;;;;;30.58;27.17;;;;;;;;;;2039575;29;20176;-56
2021/06/04 06:22:43;;;;;;;32.63;27.70;;;;;;;;;;2040875;29;20198;-52
2021/06/04 06:23:43;;;;;;;32.72;29.08;;;;;;;;;;2040463;29;20179;-56
2021/06/04 06:24:44;;;;;;;32.25;28.85;;;;;;;;;;2049138;29;20678;-56
2021/06/04 06:25:49;;;;;;;36.30;30.52;;;;;;;;;;2040968;29;20219;-58
2021/06/04 06:26:49;;;;;;;31.90;28.58;;;;;;;;;;2034429;29;20177;-53
2021/06/04 06:27:50;;;;;;;30.67;27.23;;;;;;;;;;2041079;29;20255;-53
2021/06/04 06:28:51;;;;;;;33.50;29.85;;;;;;;;;;2041867;29;20164;-57
2021/06/04 06:29:51;;;;;;;28.73;25.65;;;;;;;;;;2040967;29;20666;-56
2021/06/04 06:30:52;;;;;;;29.60;25.55;;;;;;;;;;2042556;29;20259;-55
2021/06/04 06:31:52;;;;;;;29.55;26.05;;;;;;;;;;2042110;29;20207;-55
2021/06/04 06:32:53;;;;;;;28.20;25.27;;;;;;;;;;2039417;29;20238;-56
2021/06/04 06:33:53;;;;;;;30.15;26.90;;;;;;;;;;2041458;29;20172;-54
2021/06/04 06:34:54;;;;;;;33.95;30.35;;;;;;;;;;2041631;29;20175;-56
2021/06/04 06:35:59;;;;;;;36.15;30.85;;;;;;;;;;2040918;29;20184;-56
2021/06/04 06:37:00;;;;;;;34.85;31.20;;;;;;;;;;2032835;29;20228;-57
2021/06/04 06:38:01;;;;;;;34.38;30.02;;;;;;;;;;2041325;29;20195;-56
2021/06/04 06:39:05;;;;;;;36.00;31.85;;;;;;;;;;2041227;29;20184;-58
2021/06/04 06:40:07;;;;;;;32.53;28.95;;;;;;;;;;2040612;29;20687;-54
2021/06/04 06:41:08;;;;;;;41.80;32.92;;;;;;;;;;2041563;29;20175;-59
2021/06/04 06:42:09;;;;;;;37.00;33.10;;;;;;;;;;2039028;29;20179;-59
2021/06/04 06:43:09;;;;;;;35.90;31.85;;;;;;;;;;2040087;29;20706;-53
2021/06/04 06:44:11;;;;;;;35.50;31.70;;;;;;;;;;2041346;29;20244;-58
2021/06/04 06:45:11;;;;;;;33.28;29.70;;;;;;;;;;2040414;29;20184;-59
2021/06/04 06:46:13;;;;;;;36.70;32.42;;;;;;;;;;2042255;29;20227;-57
2021/06/04 06:47:13;;;;;;;35.15;31.45;;;;;;;;;;2041327;29;20176;-58
2021/06/04 06:48:13;;;;;;;35.95;32.13;;;;;;;;;;2042924;29;20275;-58
2021/06/04 06:49:14;;;;;;;38.53;34.42;;;;;;;;;;2043034;29;20168;-57
2021/06/04 06:50:14;;;;;;;37.28;32.78;;;;;;;;;;2042537;29;20188;-57
2021/06/04 06:51:16;;;;;;;34.95;31.25;;;;;;;;;;2048921;28;20171;-57
2021/06/04 06:52:16;;;;;;;37.15;33.15;;;;;;;;;;2048315;29;20179;-57
2021/06/04 06:53:17;;;;;;;37.30;33.30;;;;;;;;;;2041831;29;20207;-57
2021/06/04 06:54:20;;;;;;;36.83;32.83;;;;;;;;;;2041136;29;20206;-55
2021/06/04 06:55:21;;;;;;;38.75;34.55;;;;;;;;;;2039600;29;20190;-59
2021/06/04 06:56:21;;;;;;;37.17;33.17;;;;;;;;;;2041226;29;20741;-57
2021/06/04 06:57:21;;;;;;;41.33;35.10;;;;;;;;;;2041910;29;20180;-56
2021/06/04 06:58:22;;;;;;;37.97;33.53;;;;;;;;;;2041654;29;20204;-59
2021/06/04 06:59:24;;;;;;;37.55;33.58;;;;;;;;;;2042209;29;20251;-56
2021/06/04 07:00:27;;;;;;;37.80;33.70;;;;;;;;;;2040615;29;20618;-56
2021/06/04 07:01:27;;;;;;;37.47;33.47;;;;;;;;;;2042753;29;20621;-58
2021/06/04 07:02:28;;;;;;;39.60;34.25;;;;;;;;;;2040677;29;20204;-57
2021/06/04 07:03:29;;;;;;;38.38;33.17;;;;;;;;;;2042223;29;20200;-55
2021/06/04 07:04:30;;;;;;;36.35;32.60;;;;;;;;;;2043216;29;20242;-57
2021/06/04 07:05:31;;;;;;;36.30;32.50;;;;;;;;;;2041986;29;20920;-59
2021/06/04 07:06:35;;;;;;;36.92;32.97;;;;;;;;;;2042417;29;20607;-56
2021/06/04 07:07:39;;;;;;;37.47;32.97;;;;;;;;;;2041640;29;20266;-56
2021/06/04 07:08:39;;;;;;;35.70;32.10;;;;;;;;;;2041091;29;20520;-57
2021/06/04 07:09:39;;;;;;;36.75;32.65;;;;;;;;;;2040165;29;20230;-55
2021/06/04 07:10:40;;;;;;;36.60;32.67;;;;;;;;;;2041411;29;20830;-57
2021/06/04 07:11:41;;;;;;;35.38;31.35;;;;;;;;;;2040847;29;20681;-56
2021/06/04 07:12:42;;;;;;;35.45;31.65;;;;;;;;;;2039538;29;20279;-55
2021/06/04 07:13:42;;;;;;;35.72;31.52;;;;;;;;;;2041044;29;20176;-50
2021/06/04 07:14:43;;;;;;;36.72;32.90;;;;;;;;;;2040409;29;20163;-54
2021/06/04 07:15:43;;;;;;;37.40;32.15;;;;;;;;;;2033649;29;20235;-53
2021/06/04 07:16:44;;;;;;;35.00;31.17;;;;;;;;;;2040957;29;20211;-56
2021/06/04 07:17:44;;;;;;;35.35;31.08;;;;;;;;;;2034040;29;20169;-54
2021/06/04 07:18:45;;;;;;;34.28;29.95;;;;;;;;;;2039343;29;20293;-52
2021/06/04 07:19:46;;;;;;;34.05;30.02;;;;;;;;;;2041626;29;20206;-57
2021/06/04 07:20:46;;;;;;;32.67;29.13;;;;;;;;;;2042111;29;20180;-59
2021/06/04 07:21:46;;;;;;;33.85;30.27;;;;;;;;;;2050659;29;20183;-53
2021/06/04 07:22:46;;;;;;;34.55;30.17;;;;;;;;;;2050166;29;20179;-55
2021/06/04 07:23:47;;;;;;;34.50;30.30;;;;;;;;;;2040972;29;20172;-55
2021/06/04 07:24:47;;;;;;;36.85;32.35;;;;;;;;;;2040866;29;20266;-55
2021/06/04 07:25:48;;;;;;;37.67;33.13;;;;;;;;;;2042699;29;20183;-55
2021/06/04 07:26:54;;;;;;;38.17;32.63;;;;;;;;;;2042827;29;20587;-56
2021/06/04 07:27:54;;;;;;;34.13;30.42;;;;;;;;;;2039019;29;20187;-54
2021/06/04 07:29:00;;;;;;;36.90;31.20;;;;;;;;;;2042003;29;20180;-57
2021/06/04 07:30:01;;;;;;;37.13;31.88;;;;;;;;;;2035981;29;20216;-58
2021/06/04 07:31:03;;;;;;;36.72;32.28;;;;;;;;;;2041387;29;20188;-56
2021/06/04 07:32:03;;;;;;;33.38;29.73;;;;;;;;;;2040721;29;20258;-57
2021/06/04 07:33:06;;;;;;;34.10;30.50;;;;;;;;;;2039918;29;20179;-57
2021/06/04 07:34:06;;;;;;;34.78;30.85;;;;;;;;;;2039686;29;20273;-59
2021/06/04 07:35:08;;;;;;;35.38;30.88;;;;;;;;;;2040767;29;20654;-52
2021/06/04 07:36:10;;;;;;;34.85;30.65;;;;;;;;;;2041538;29;20247;-56
2021/06/04 07:37:10;;;;;;;34.22;30.20;;;;;;;;;;2038535;29;20271;-53
2021/06/04 07:38:11;;;;;;;33.95;30.05;;;;;;;;;;2041029;29;20204;-49
2021/06/04 07:39:14;;;;;;;34.78;30.35;;;;;;;;;;2038691;29;20192;-55
2021/06/04 07:40:16;;;;;;;31.02;27.73;;;;;;;;;;2040013;29;20168;-54
2021/06/04 07:41:17;;;;;;;29.48;25.60;;;;;;;;;;2039535;29;20168;-57
2021/06/04 07:42:17;;;;;;;29.90;26.63;;;;;;;;;;2039718;29;20182;-58
2021/06/04 07:43:20;;;;;;;32.03;26.98;;;;;;;;;;2040097;29;20707;-53
2021/06/04 07:44:22;;;;;;;32.72;27.98;;;;;;;;;;2039294;29;20175;-51
2021/06/04 07:45:24;;;;;;;32.30;27.65;;;;;;;;;;2032622;29;20180;-58
2021/06/04 07:46:25;;;;;;;32.65;28.60;;;;;;;;;;2040405;29;20824;-55
2021/06/04 07:47:25;;;;;;;32.90;29.48;;;;;;;;;;2038843;29;20179;-55
2021/06/04 07:48:25;;;;;;;32.90;28.88;;;;;;;;;;2040338;29;20231;-58
2021/06/04 07:49:26;;;;;;;31.63;27.88;;;;;;;;;;2040808;29;20204;-57
2021/06/04 07:50:27;;;;;;;34.15;29.13;;;;;;;;;;2039484;29;20785;-55
2021/06/04 07:51:29;;;;;;;35.15;30.30;;;;;;;;;;2048308;29;20335;-57
2021/06/04 07:52:29;;;;;;;35.85;30.75;;;;;;;;;;2047557;29;20182;-55
2021/06/04 07:53:30;;;;;;;32.83;29.25;;;;;;;;;;2037576;29;20259;-52
2021/06/04 07:54:31;;;;;;;34.22;28.90;;;;;;;;;;2045388;29;20676;-56
2021/06/04 07:55:31;;;;;;;32.58;28.95;;;;;;;;;;2047936;29;20253;-56
2021/06/04 07:56:32;;;;;;;32.78;28.52;;;;;;;;;;2040952;29;20178;-56
2021/06/04 07:57:32;;;;;;;33.53;28.40;;;;;;;;;;2040578;29;20528;-55
2021/06/04 07:58:33;;;;;;;31.70;28.38;;;;;;;;;;2040867;29;20247;-57
2021/06/04 07:59:33;;;;;;;33.55;28.70;;;;;;;;;;2039512;29;20231;-56
2021/06/04 08:00:34;;;;;;;28.50;25.30;;;;;;;;;;2040067;29;20626;-58
2021/06/04 08:01:34;;;;;;;30.33;26.77;;;;;;;;;;2037683;29;20714;-55
2021/06/04 08:02:34;;;;;;;32.22;28.65;;;;;;;;;;2040515;29;20175;-54
2021/06/04 08:03:35;;;;;;;33.78;29.15;;;;;;;;;;2037543;29;20176;-56
2021/06/04 08:04:36;;;;;;;34.47;28.58;;;;;;;;;;2039889;29;20183;-56
2021/06/04 08:05:37;;;;;;;33.65;29.50;;;;;;;;;;2029269;29;20181;-59
2021/06/04 08:06:38;;;;;;;35.10;31.17;;;;;;;;;;2030647;29;20187;-53
2021/06/04 08:07:38;;;;;;;34.72;30.23;;;;;;;;;;2039963;29;20226;-56
2021/06/04 08:08:39;;;;;;;34.88;28.95;;;;;;;;;;2039844;29;20178;-56
2021/06/04 08:09:42;;;;;;;30.80;26.65;;;;;;;;;;2040610;29;20736;-53
2021/06/04 08:10:43;;;;;;;33.33;29.58;;;;;;;;;;2040449;29;20222;-56
2021/06/04 08:11:46;;;;;;;33.38;29.17;;;;;;;;;;2040078;29;20171;-55
2021/06/04 08:12:47;;;;;;;34.50;30.75;;;;;;;;;;2040051;29;20570;-56
2021/06/04 08:13:47;;;;;;;37.78;31.02;;;;;;;;;;2040774;29;20176;-58
2021/06/04 08:14:47;;;;;;;33.65;28.77;;;;;;;;;;2039833;29;20194;-53
2021/06/04 08:15:52;;;;;;;35.20;30.00;;;;;;;;;;2031189;29;20184;-52
2021/06/04 08:16:54;;;;;;;32.33;28.60;;;;;;;;;;2038372;29;20735;-59
2021/06/04 08:17:55;;;;;;;31.08;26.63;;;;;;;;;;2040553;29;20178;-54
2021/06/04 08:18:55;;;;;;;31.25;27.85;;;;;;;;;;2037987;29;20184;-55
2021/06/04 08:19:55;;;;;;;35.40;28.83;;;;;;;;;;2038641;29;20248;-54
2021/06/04 08:20:56;;;;;;;30.55;27.00;;;;;;;;;;2046026;29;20175;-55
2021/06/04 08:21:57;;;;;;;31.25;28.02;;;;;;;;;;2045293;29;20175;-57
2021/06/04 08:22:59;;;;;;;33.10;27.83;;;;;;;;;;2039959;29;20339;-54
2021/06/04 08:23:59;;;;;;;37.33;29.23;;;;;;;;;;2037794;29;20190;-56
2021/06/04 08:24:59;;;;;;;31.80;27.75;;;;;;;;;;2039041;29;20600;-58
2021/06/04 08:26:02;;;;;;;31.83;28.33;;;;;;;;;;2039151;29;20243;-53
2021/06/04 08:27:03;;;;;;;30.35;27.10;;;;;;;;;;2039367;29;20258;-55
2021/06/04 08:28:04;;;;;;;32.80;27.58;;;;;;;;;;2039633;29;20203;-62
2021/06/04 08:29:05;;;;;;;32.55;28.17;;;;;;;;;;2039590;29;20176;-62
2021/06/04 08:30:07;;;;;;;31.00;27.55;;;;;;;;;;2031489;29;20199;-61
2021/06/04 08:31:08;;;;;;;31.73;28.17;;;;;;;;;;2038576;29;20194;-58
2021/06/04 08:32:09;;;;;;;34.17;27.60;;;;;;;;;;2039568;29;20183;-62
2021/06/04 08:33:09;;;;;;;30.23;27.00;;;;;;;;;;2046872;29;20882;-62
2021/06/04 08:34:11;;;;;;;31.50;26.48;;;;;;;;;;2040423;29;20187;-63
2021/06/04 08:35:11;;;;;;;33.10;27.98;;;;;;;;;;2039899;29;20526;-61
2021/06/04 08:36:15;;;;;;;31.42;27.63;;;;;;;;;;2042036;29;20187;-62
2021/06/04 08:37:15;;;;;;;30.10;25.35;;;;;;;;;;2034265;29;20195;-60
2021/06/04 08:38:15;;;;;;;30.75;27.00;;;;;;;;;;2042474;29;20313;-61
2021/06/04 08:39:18;;;;;;;29.58;25.85;;;;;;;;;;2042451;29;20203;-59
2021/06/04 08:40:24;;;;;;;29.95;25.40;;;;;;;;;;2041988;29;20247;-59
2021/06/04 08:41:48;;;;;;;31.05;25.38;;;;;;;;;;2033848;29;20180;-62
2021/06/04 08:42:57;;;;;;;29.73;25.17;;;;;;;;;;2041480;29;20229;-61
2021/06/04 08:44:05;;;;;;;29.73;25.70;;;;;;;;;;2041677;29;20270;-61
2021/06/04 08:45:20;;;;;;;28.90;25.40;;;;;;;;;;2039424;29;20167;-58
2021/06/04 08:46:29;;;;;;;27.73;24.13;;;;;;;;;;2046701;29;20666;-63
2021/06/04 08:47:34;;;;;;;28.38;25.38;;;;;;;;;;2045473;28;20179;-61
2021/06/04 08:48:37;;;;;;;28.25;25.27;;;;;;;;;;2040156;29;20199;-62
2021/06/04 08:49:48;;;;;;;30.10;25.48;;;;;;;;;;2042142;29;20264;-60
2021/06/04 08:50:54;;;;;;;28.92;25.80;;;;;;;;;;2049546;29;20183;-63
2021/06/04 08:52:12;;;;;;;29.55;23.92;;;;;;;;;;2048031;29;20182;-63
2021/06/04 08:53:35;;;;;;;28.45;24.10;;;;;;;;;;2041939;29;20797;-65
2021/06/04 08:54:48;;;;;;;29.33;23.30;;;;;;;;;;2041723;29;20191;-61
2021/06/04 08:55:54;;;;;;;27.20;23.67;;;;;;;;;;2041553;29;20179;-58
2021/06/04 08:56:57;;;;;;;27.00;23.35;;;;;;;;;;2041400;29;20267;-60
2021/06/04 08:58:07;;;;;;;25.63;22.52;;;;;;;;;;2039919;29;20231;-61
2021/06/04 08:59:09;;;;;;;28.95;22.95;;;;;;;;;;2042375;29;20175;-62
2021/06/04 09:00:22;;;;;;;27.48;23.48;;;;;;;;;;2041794;29;20195;-63
2021/06/04 09:01:27;;;;;;;28.67;25.67;;;;;;;;;;2040975;29;20180;-59
2021/06/04 09:02:36;;;;;;;27.80;24.90;;;;;;;;;;2041107;29;20230;-65
2021/06/04 09:03:38;;;;;;;28.27;25.25;;;;;;;;;;2038316;29;20194;-61
2021/06/04 09:04:42;;;;;;;28.10;23.63;;;;;;;;;;2040565;29;20178;-60
2021/06/04 09:05:45;;;;;;;28.80;24.92;;;;;;;;;;2041832;29;20180;-57
2021/06/04 09:06:45;;;;;;;28.55;24.83;;;;;;;;;;2042002;29;20190;-62
2021/06/04 09:07:46;;;;;;;26.88;23.98;;;;;;;;;;2040908;29;20172;-63
2021/06/04 09:08:46;;;;;;;27.23;24.40;;;;;;;;;;2041640;29;20203;-60
2021/06/04 09:10:08;;;;;;;26.05;23.40;;;;;;;;;;2041248;29;20179;-62
2021/06/04 09:11:15;;;;;;;24.15;21.75;;;;;;;;;;2041689;29;20168;-59
2021/06/04 09:12:19;;;;;;;25.58;21.50;;;;;;;;;;2041789;29;20183;-63
2021/06/04 09:13:31;;;;;;;24.60;21.83;;;;;;;;;;2041040;29;20262;-59
2021/06/04 09:14:31;;;;;;;24.27;21.55;;;;;;;;;;2040708;29;20894;-60
2021/06/04 09:15:34;;;;;;;22.63;20.25;;;;;;;;;;2041423;29;20180;-60
2021/06/04 09:16:52;;;;;;;25.83;20.50;;;;;;;;;;2040924;29;20175;-63
2021/06/04 09:17:57;;;;;;;22.38;19.98;;;;;;;;;;2042689;29;20207;-59
2021/06/04 09:18:57;;;;;;;23.27;20.80;;;;;;;;;;2039523;29;20183;-61
2021/06/04 09:20:00;;;;;;;22.33;20.00;;;;;;;;;;2041841;29;20212;-61
2021/06/04 09:21:02;;;;;;;23.25;20.30;;;;;;;;;;2040964;29;20250;-61
2021/06/04 09:22:05;;;;;;;22.88;20.50;;;;;;;;;;2039347;29;20278;-60
2021/06/04 09:23:06;;;;;;;23.55;21.05;;;;;;;;;;2041783;29;20231;-62
2021/06/04 09:24:10;;;;;;;24.10;20.58;;;;;;;;;;2041382;29;20588;-63
2021/06/04 09:25:16;;;;;;;23.23;20.85;;;;;;;;;;2041902;29;20196;-62
2021/06/04 09:26:17;;;;;;;23.33;20.83;;;;;;;;;;2041634;29;20155;-60
2021/06/04 09:27:26;;;;;;;24.20;21.80;;;;;;;;;;2040886;29;20270;-62
2021/06/04 09:28:32;;;;;;;23.88;20.77;;;;;;;;;;2041578;29;20243;-59
2021/06/04 09:29:32;;;;;;;25.08;19.85;;;;;;;;;;2039292;29;20184;-60
2021/06/04 09:30:32;;;;;;;22.35;19.98;;;;;;;;;;2039262;29;20696;-61
2021/06/04 09:31:34;;;;;;;26.13;20.42;;;;;;;;;;2041840;29;20215;-62
2021/06/04 09:32:34;;;;;;;21.40;19.13;;;;;;;;;;2040974;29;20279;-61
2021/06/04 09:33:44;;;;;;;22.88;20.42;;;;;;;;;;2040312;29;20179;-60
2021/06/04 09:34:44;;;;;;;22.40;19.58;;;;;;;;;;2041832;29;20172;-62
2021/06/04 09:36:03;;;;;;;29.13;23.38;;;;;;;;;;2040819;29;20207;-62
2021/06/04 09:37:06;;;;;;;31.50;24.92;;;;;;;;;;2041346;29;20733;-60
2021/06/04 09:38:15;;;;;;;36.35;27.80;;;;;;;;;;2041340;29;20714;-63
2021/06/04 09:39:29;;;;;;;58.20;38.88;;;;;;;;;;2038729;29;20210;-62
2021/06/04 09:40:31;;;;;;;22.77;20.30;;;;;;;;;;2041196;29;20183;-63
2021/06/04 09:41:49;;;;;;;201.13;124.90;;;;;;;;;;2038723;29;20214;-63
2021/06/04 09:42:55;;;;;;;36.65;24.95;;;;;;;;;;2040859;29;20188;-64
2021/06/04 09:44:07;;;;;;;26.38;21.33;;;;;;;;;;2040796;29;20168;-61
2021/06/04 09:45:10;;;;;;;84.43;51.15;;;;;;;;;;2040799;29;20242;-62
2021/06/04 09:46:11;;;;;;;38.53;28.33;;;;;;;;;;2030494;29;20184;-64
2021/06/04 09:47:12;;;;;;;23.52;19.08;;;;;;;;;;2038556;29;20172;-61
2021/06/04 09:48:14;;;;;;;24.70;20.05;;;;;;;;;;2041327;29;20195;-62
2021/06/04 09:49:31;;;;;;;21.80;19.13;;;;;;;;;;2037711;29;20188;-63
2021/06/04 09:50:34;;;;;;;21.67;19.35;;;;;;;;;;2038742;29;20252;-61
2021/06/04 09:51:37;;;;;;;24.15;19.95;;;;;;;;;;2041935;29;20203;-61
2021/06/04 09:52:39;;;;;;;24.00;19.17;;;;;;;;;;2048065;29;20721;-63
2021/06/04 09:53:40;;;;;;;21.27;19.10;;;;;;;;;;2047941;29;20217;-61
2021/06/04 09:54:41;;;;;;;25.42;19.63;;;;;;;;;;2040410;29;20194;-62
2021/06/04 09:55:43;;;;;;;21.27;18.25;;;;;;;;;;2041932;29;20175;-58
2021/06/04 09:56:43;;;;;;;22.00;18.80;;;;;;;;;;2040517;29;20190;-60
2021/06/04 09:57:56;;;;;;;21.63;17.30;;;;;;;;;;2041319;29;20167;-58
2021/06/04 09:59:00;;;;;;;19.15;17.10;;;;;;;;;;2040270;29;20175;-60
2021/06/04 10:00:17;;;;;;;21.42;19.13;;;;;;;;;;2038218;29;20207;-62
2021/06/04 10:01:18;;;;;;;20.40;18.30;;;;;;;;;;2039953;29;20179;-62
2021/06/04 10:02:33;;;;;;;19.42;17.52;;;;;;;;;;2040008;29;20187;-61
2021/06/04 10:03:44;;;;;;;23.00;19.17;;;;;;;;;;2038442;29;20176;-64
2021/06/04 10:04:45;;;;;;;22.10;19.67;;;;;;;;;;2041175;29;20210;-63
2021/06/04 10:05:46;;;;;;;22.95;18.88;;;;;;;;;;2041795;29;20186;-62
2021/06/04 10:06:47;;;;;;;21.80;19.52;;;;;;;;;;2039444;29;20190;-62
2021/06/04 10:07:58;;;;;;;21.90;18.95;;;;;;;;;;2041084;29;20172;-61
2021/06/04 10:08:58;;;;;;;19.52;17.42;;;;;;;;;;2042096;29;20259;-62
2021/06/04 10:10:08;;;;;;;22.95;19.48;;;;;;;;;;2037986;29;20199;-62
2021/06/04 10:11:14;;;;;;;23.00;19.88;;;;;;;;;;2040604;29;20187;-61
2021/06/04 10:12:40;;;;;;;23.30;20.23;;;;;;;;;;2039302;29;20617;-62
2021/06/04 10:14:07;;;;;;;20.70;17.55;;;;;;;;;;2040317;29;20222;-61
2021/06/04 10:15:24;;;;;;;18.65;16.80;;;;;;;;;;2041344;29;20208;-62
2021/06/04 10:18:01;;;;;;;17.15;15.32;;;;;;;;;;2040603;29;20266;-61
2021/06/04 10:19:15;;;;;;;18.40;14.38;;;;;;;;;;2039922;29;20246;-59
2021/06/04 10:20:23;;;;;;;17.45;14.40;;;;;;;;;;2039525;29;20650;-57
2021/06/04 10:21:27;;;;;;;17.63;15.73;;;;;;;;;;2040353;29;20171;-61
2021/06/04 10:22:33;;;;;;;16.02;13.68;;;;;;;;;;2038782;29;20183;-60